Terminal Aerodrome Forecast
Issued by NWS Wakefield, VA

Home | Current Version | Previous Version | Text Only | Print | Product List | Glossary On
Versions: 1 2 3 4 5 6 7 8 9 10 11 12 13 14 15
998
FTUS41 KAKQ 121732
TAFORF
TAF
KORF 121732Z 1218/1318 06007KT P6SM OVC080
     FM121900 06007KT 5SM -SN BR OVC045
     FM122100 09007KT 1SM -SN BR OVC012
     FM130000 VRB03KT P6SM OVC025
     FM130900 30012G22KT P6SM SCT040
     FM131300 33017G30KT P6SM SKC=

USA.gov is the U.S. government's official web portal to all federal, state and local government web resources and services.